Airfield :
LOGIN :

Register | Disclaimer

   EN    FR    IT 

 










Legend :    VFR   Marginal VFR   IFR   Intensive IFR   Very Intensive IFR
Visi :
Ceiling :
>= 8 km
>= 3000ft
5 to 8 km
1000 to 3000 ft
1500m to 5 km
500 to 1000 ft
800 to 1500m
200 to 500 ft
< 800m
< 200 ft
Symbols :   Thunderstorms  Fog  Heavy snow  Heavy precipitations  Wind > 20 kt
SIGMETs :     Misc.  Thunderstorms  Icing  Turbulence  Mountain Waves  Volcanic Ashes






- Airport Elevation : 97 ft
- IATA code : EBJ


EKEB - Esbjerg

CURRENT METAR :
  • 202120Z AUTO 29014KT 9999 -DZ BKN020/// 05/03 Q0999

EXPIRED METARs :
  • 202050Z AUTO 29019KT 9999 -RA OVC014/// 05/03 Q0998
  • 202020Z AUTO 30020KT 9999 -RA BKN014/// 05/03 Q0998
  • 201950Z AUTO 28020KT 8000 RA BKN008/// 06/04 Q0997
  • 201920Z AUTO 20025KT 6000 -RA BKN006/// 07/06 Q0996
  • 201850Z AUTO 20026G37KT 6000 -RA BKN005/// 07/06 Q0996

TAF TAF EKEB
Valid from the 20 at 18:00 until the 20 at 23:00 UTC


201735Z 2018/2023 21022KT 2500 RADZ BKN003
BECMG 2018/2020 20025G40KT 3000 BKN010
BECMG 2020/2023 29015G25KT 9999 NSW SCT020



MET'MAP, your aeronautical weather chart ! - Copyright ORBIFLY December 2007 - Disclaimer

ORBIFLY MET'MAP TEAM :

Programming & Development : Alexandra Zaïnal
Concept & original design : Baudouin d'Aumeries
Assistance for programming : Marc-Olivier Méhu
Technical & hardware support : Manuel Goepfert

Contact : metmap@orbifly.com




SOURCES & CREDITS :

   NOAA